createdAt,value
2022-12-22T00:00:38.652Z,96009.78
2022-12-22T00:03:32.499Z,96008.75
2022-12-22T00:06:19.393Z,96020.06
2022-12-22T00:09:05.909Z,96017.41
2022-12-22T00:11:52.105Z,96012.97
2022-12-22T00:14:37.793Z,96005.28
2022-12-22T00:17:35.848Z,96009.44
2022-12-22T00:20:30.292Z,96014.47
2022-12-22T00:23:17.660Z,96001.78
2022-12-22T00:26:03.596Z,96003.16
2022-12-22T00:28:49.725Z,95999.47
2022-12-22T00:31:36.774Z,96010.00
2022-12-22T00:34:24.835Z,96001.38
2022-12-22T00:40:36.092Z,95999.47
2022-12-22T00:43:21.880Z,96012.00
2022-12-22T00:46:07.992Z,96006.72
2022-12-22T00:48:54.008Z,96006.84
2022-12-22T00:51:41.541Z,96001.34
2022-12-22T00:54:32.289Z,96000.09
2022-12-22T00:57:20.121Z,95995.63
2022-12-22T01:00:06.744Z,95991.41
2022-12-22T01:02:52.780Z,95984.97
2022-12-22T01:05:38.453Z,95985.53
2022-12-22T01:08:24.400Z,95978.34
2022-12-22T01:11:10.006Z,95985.75
2022-12-22T01:13:57.207Z,95990.09
2022-12-22T01:16:43.133Z,95988.72
2022-12-22T01:19:28.634Z,95995.03
2022-12-22T01:22:15.484Z,95992.78
2022-12-22T01:25:03.444Z,95976.97
2022-12-22T01:27:49.200Z,95977.06
2022-12-22T01:30:36.376Z,95964.69
2022-12-22T01:33:21.956Z,95955.63
2022-12-22T01:36:07.800Z,95966.97
2022-12-22T01:38:53.453Z,95964.00
2022-12-22T01:41:39.809Z,95958.53
2022-12-22T01:44:33.609Z,95952.81
2022-12-22T01:47:53.913Z,95945.47
2022-12-22T01:50:50.139Z,95939.28
2022-12-22T01:53:39.491Z,95941.47
2022-12-22T01:56:25.991Z,95938.00
2022-12-22T01:59:17.747Z,95940.19
2022-12-22T02:02:04.208Z,95933.34
2022-12-22T02:05:04.238Z,95942.38
2022-12-22T02:08:08.731Z,95938.81
2022-12-22T02:11:21.547Z,95933.88
2022-12-22T02:14:29.454Z,95932.19
2022-12-22T02:17:25.903Z,95933.88
2022-12-22T02:20:52.544Z,95935.72
2022-12-22T02:23:54.549Z,95930.69
2022-12-22T02:26:49.125Z,95935.03
2022-12-22T02:29:39.165Z,95937.13
2022-12-22T02:32:25.315Z,95931.16
2022-12-22T02:35:11.109Z,95921.97
2022-12-22T02:38:07.915Z,95931.50
2022-12-22T02:41:01.437Z,95922.09
2022-12-22T02:44:08.832Z,95915.91
2022-12-22T02:47:05.607Z,95917.84
2022-12-22T02:49:58.782Z,95905.97
2022-12-22T02:52:50.139Z,95916.94
2022-12-22T02:55:36.269Z,95910.06
2022-12-22T02:58:21.976Z,95912.25
2022-12-22T03:01:09.446Z,95906.31
2022-12-22T03:03:55.265Z,95901.00
2022-12-22T03:06:41.119Z,95905.50
2022-12-22T03:09:27.669Z,95905.50
2022-12-22T03:12:13.356Z,95892.88
2022-12-22T03:14:58.842Z,95882.13
2022-12-22T03:17:46.206Z,95865.75
2022-12-22T03:20:32.078Z,95864.38
2022-12-22T03:23:22.873Z,95851.78
2022-12-22T03:25:54.314Z,95856.38
2022-12-22T03:28:48.754Z,95850.19
2022-12-22T03:31:16.947Z,95840.59
2022-12-22T03:33:46.449Z,95839.88
2022-12-22T03:36:14.453Z,95838.97
2022-12-22T03:38:42.465Z,95845.03
2022-12-22T03:41:30.929Z,95849.84
2022-12-22T03:44:16.495Z,95831.84
2022-12-22T03:46:44.584Z,95835.28
2022-12-22T03:49:14.031Z,95827.84
2022-12-22T03:51:44.982Z,95836.00
2022-12-22T03:54:15.086Z,95834.50
2022-12-22T03:56:44.090Z,95831.06
2022-12-22T03:59:12.784Z,95842.50
2022-12-22T04:01:46.945Z,95829.00
2022-12-22T04:04:18.781Z,95829.47
2022-12-22T04:06:48.220Z,95822.69
2022-12-22T04:09:16.321Z,95827.06
2022-12-22T04:12:04.155Z,95831.63
2022-12-22T04:14:34.623Z,95828.91
2022-12-22T04:17:03.513Z,95833.91
2022-12-22T04:19:33.217Z,95824.06
2022-12-22T04:22:01.663Z,95809.06
2022-12-22T04:24:29.849Z,95813.63
2022-12-22T04:26:57.895Z,95810.44
2022-12-22T04:29:25.899Z,95793.03
2022-12-22T04:31:54.083Z,95787.66
2022-12-22T04:34:22.174Z,95790.41
2022-12-22T04:36:51.523Z,95789.94
2022-12-22T04:39:23.796Z,95795.91
2022-12-22T04:41:51.821Z,95791.19
2022-12-22T04:44:19.863Z,95790.75
2022-12-22T04:46:49.248Z,95794.28
2022-12-22T04:49:17.239Z,95786.50
2022-12-22T04:51:45.307Z,95785.25
2022-12-22T04:54:14.799Z,95795.56
2022-12-22T04:56:42.838Z,95781.97
2022-12-22T04:59:10.896Z,95798.91
2022-12-22T05:01:39.961Z,95797.19
2022-12-22T05:04:08.125Z,95800.81
2022-12-22T05:06:36.136Z,95796.69
2022-12-22T05:09:04.265Z,95793.97
2022-12-22T05:11:33.623Z,95780.91
2022-12-22T05:14:07.066Z,95778.38
2022-12-22T05:16:35.616Z,95784.34
2022-12-22T05:19:03.847Z,95780.34
2022-12-22T05:21:31.878Z,95778.03
2022-12-22T05:24:00.102Z,95768.56
2022-12-22T05:26:28.196Z,95768.22
2022-12-22T05:28:57.600Z,95762.44
2022-12-22T05:31:27.328Z,95773.94
2022-12-22T05:33:55.440Z,95779.28
2022-12-22T05:36:23.561Z,95780.34
2022-12-22T05:38:51.566Z,95781.69
2022-12-22T05:41:19.735Z,95784.91
2022-12-22T05:43:47.849Z,95785.81
2022-12-22T05:46:17.252Z,95776.31
2022-12-22T05:48:45.334Z,95779.97
2022-12-22T05:51:13.474Z,95770.03
2022-12-22T05:53:42.211Z,95769.44
2022-12-22T05:56:13.306Z,95758.31
2022-12-22T05:58:41.402Z,95763.34
2022-12-22T06:01:12.303Z,95757.25
2022-12-22T06:03:41.762Z,95765.44
2022-12-22T06:06:09.840Z,95769.44
2022-12-22T06:08:37.898Z,95776.09
2022-12-22T06:11:06.329Z,95766.94
2022-12-22T06:13:34.562Z,95764.16
2022-12-22T06:16:02.697Z,95763.84
2022-12-22T06:18:32.410Z,95766.34
2022-12-22T06:21:01.787Z,95765.88
2022-12-22T06:23:29.907Z,95763.25
2022-12-22T06:25:59.390Z,95762.56
2022-12-22T06:28:28.539Z,95772.75
2022-12-22T06:30:57.041Z,95768.84
2022-12-22T06:33:25.107Z,95769.97
2022-12-22T06:35:58.719Z,95767.13
2022-12-22T06:38:29.355Z,95765.84
2022-12-22T06:40:57.490Z,95761.84
2022-12-22T06:43:24.631Z,95760.91
2022-12-22T06:45:53.376Z,95775.09
2022-12-22T06:48:21.664Z,95765.72
2022-12-22T06:50:49.722Z,95773.84
2022-12-22T06:53:17.989Z,95772.84
2022-12-22T06:55:48.270Z,95772.56
2022-12-22T06:58:16.367Z,95777.66
2022-12-22T07:00:48.440Z,95783.69
2022-12-22T07:03:16.706Z,95786.69
2022-12-22T07:05:45.196Z,95804.19
2022-12-22T07:08:14.271Z,95802.16
2022-12-22T07:11:00.702Z,95798.88
2022-12-22T07:13:33.911Z,95783.25
2022-12-22T07:16:02.782Z,95792.06
2022-12-22T07:18:33.143Z,95802.47
2022-12-22T07:21:02.881Z,95800.16
2022-12-22T07:23:31.757Z,95812.81
2022-12-22T07:26:01.179Z,95815.22
2022-12-22T07:28:34.598Z,95830.34
2022-12-22T07:31:27.795Z,95828.75
2022-12-22T07:33:55.929Z,95826.22
2022-12-22T07:36:24.191Z,95821.25
2022-12-22T07:38:53.188Z,95826.88
2022-12-22T07:41:39.424Z,95820.59
2022-12-22T07:44:12.476Z,95831.38
2022-12-22T07:46:41.370Z,95816.59
2022-12-22T07:49:29.986Z,95804.56
2022-12-22T07:51:58.991Z,95797.81
2022-12-22T07:54:28.988Z,95778.81
2022-12-22T07:56:58.302Z,95788.91
2022-12-22T07:59:27.853Z,95797.59
2022-12-22T08:01:56.001Z,95804.13
2022-12-22T08:04:24.411Z,95803.97
2022-12-22T08:06:52.534Z,95793.28
2022-12-22T08:09:22.899Z,95796.06
2022-12-22T08:11:51.105Z,95791.47
2022-12-22T08:14:19.110Z,95808.84
2022-12-22T08:16:48.641Z,95807.94
2022-12-22T08:19:16.762Z,95812.69
2022-12-22T08:21:52.148Z,95805.56
2022-12-22T08:24:21.256Z,95802.00
2022-12-22T08:26:54.879Z,95801.75
2022-12-22T08:29:29.138Z,95802.72
2022-12-22T08:31:59.004Z,95791.91
2022-12-22T08:34:27.101Z,95793.41
2022-12-22T08:36:58.857Z,95794.91
2022-12-22T08:39:31.706Z,95806.44
2022-12-22T08:42:00.929Z,95794.47
2022-12-22T08:44:31.061Z,95794.66
2022-12-22T08:47:01.508Z,95783.31
2022-12-22T08:49:29.712Z,95788.28
2022-12-22T08:51:58.229Z,95793.41
2022-12-22T08:54:26.341Z,95783.31
2022-12-22T08:56:54.438Z,95789.94
2022-12-22T08:59:22.556Z,95800.91
2022-12-22T09:01:51.260Z,95803.16
2022-12-22T09:04:22.912Z,95822.75
2022-12-22T09:06:54.007Z,95827.47
2022-12-22T09:09:22.560Z,95834.34
2022-12-22T09:11:51.602Z,95845.94
2022-12-22T09:14:45.087Z,95844.69
2022-12-22T09:17:37.078Z,95847.78
2022-12-22T09:20:31.772Z,95847.03
2022-12-22T09:23:01.291Z,95860.44
2022-12-22T09:25:30.117Z,95851.38
2022-12-22T09:27:59.600Z,95851.75
2022-12-22T09:30:51.621Z,95844.28
2022-12-22T09:33:19.958Z,95848.97
2022-12-22T09:35:49.348Z,95852.06
2022-12-22T09:38:17.419Z,95848.06
2022-12-22T09:40:45.622Z,95855.94
2022-12-22T09:43:18.009Z,95848.97
2022-12-22T09:45:47.028Z,95837.38
2022-12-22T09:48:15.724Z,95849.69
2022-12-22T09:50:43.974Z,95851.53
2022-12-22T09:53:21.718Z,95858.03
2022-12-22T09:55:52.104Z,95857.38
2022-12-22T09:58:27.012Z,95859.56
2022-12-22T10:01:08.286Z,95861.59
2022-12-22T10:03:46.460Z,95871.59
2022-12-22T10:06:22.247Z,95875.81
2022-12-22T10:08:54.344Z,95868.50
2022-12-22T10:11:22.596Z,95876.16
2022-12-22T10:13:50.632Z,95886.16
2022-12-22T10:16:23.009Z,95891.75
2022-12-22T10:19:07.278Z,95887.97
2022-12-22T10:21:44.642Z,95889.69
2022-12-22T10:24:28.062Z,95894.59
2022-12-22T10:27:00.162Z,95904.47
2022-12-22T10:29:29.688Z,95904.00
2022-12-22T10:32:02.174Z,95907.09
2022-12-22T10:34:31.281Z,95914.56
2022-12-22T10:37:04.718Z,95913.63
2022-12-22T10:39:38.387Z,95914.66
2022-12-22T10:42:20.650Z,95912.13
2022-12-22T10:44:50.694Z,95915.78
2022-12-22T10:47:24.168Z,95910.84
2022-12-22T10:52:30.995Z,95903.31
2022-12-22T10:58:07.638Z,95896.09
2022-12-22T11:00:35.816Z,95895.41
2022-12-22T11:03:07.096Z,95912.25
2022-12-22T11:05:35.577Z,95905.47
2022-12-22T11:08:17.832Z,95900.91
2022-12-22T11:10:53.843Z,95904.00
2022-12-22T11:13:55.109Z,95908.38
2022-12-22T11:16:34.095Z,95898.25
2022-12-22T11:19:31.096Z,95898.84
2022-12-22T11:22:08.750Z,95889.81
2022-12-22T11:24:47.618Z,95881.78
2022-12-22T11:27:42.327Z,95873.41
2022-12-22T11:30:20.031Z,95880.03
2022-12-22T11:33:15.904Z,95868.38
2022-12-22T11:35:57.576Z,95881.78
2022-12-22T11:38:45.748Z,95896.91
2022-12-22T11:41:32.094Z,95879.25
2022-12-22T11:44:28.454Z,95881.38
2022-12-22T11:47:06.494Z,95886.56
2022-12-22T11:49:53.441Z,95890.00
2022-12-22T11:52:49.012Z,95889.88
2022-12-22T11:55:30.244Z,95885.09
2022-12-22T11:58:14.530Z,95887.34
2022-12-22T12:01:14.061Z,95898.22
2022-12-22T12:04:21.828Z,95897.53
2022-12-22T12:07:26.032Z,95906.22
2022-12-22T12:10:15.789Z,95909.81
2022-12-22T12:12:53.945Z,95906.94
2022-12-22T12:15:33.360Z,95905.22
2022-12-22T12:18:37.607Z,95909.78
2022-12-22T12:21:27.515Z,95919.28
2022-12-22T12:24:30.316Z,95923.31
2022-12-22T12:27:32.184Z,95922.78
2022-12-22T12:30:38.917Z,95917.00
2022-12-22T12:33:16.760Z,95920.56
2022-12-22T12:35:58.071Z,95923.53
2022-12-22T12:39:07.287Z,95932.69
2022-12-22T12:41:38.814Z,95936.91
2022-12-22T12:44:10.432Z,95939.38
2022-12-22T12:47:09.414Z,95938.78
2022-12-22T12:50:06.767Z,95932.59
2022-12-22T12:53:14.870Z,95941.19
2022-12-22T12:56:07.019Z,95933.00
2022-12-22T12:58:53.663Z,95940.44
2022-12-22T13:02:00.696Z,95936.78
2022-12-22T13:05:29.811Z,95951.47
2022-12-22T13:08:16.848Z,95949.72
2022-12-22T13:12:01.707Z,95959.91
2022-12-22T13:14:56.054Z,95961.41
2022-12-22T13:17:50.390Z,95968.94
2022-12-22T13:20:26.343Z,95979.66
2022-12-22T13:22:56.133Z,95974.78
2022-12-22T13:25:28.096Z,95980.72
2022-12-22T13:27:59.305Z,95975.81
2022-12-22T13:30:31.444Z,95972.84
2022-12-22T13:33:02.300Z,95975.50
2022-12-22T13:35:43.055Z,95970.06
2022-12-22T13:38:30.326Z,95964.81
2022-12-22T13:40:59.660Z,95968.13
2022-12-22T13:43:33.139Z,95978.38
2022-12-22T13:46:04.260Z,95984.34
2022-12-22T13:48:45.097Z,95981.94
2022-12-22T13:51:21.527Z,95991.56
2022-12-22T13:54:08.232Z,96008.78
2022-12-22T13:56:41.878Z,96004.91
2022-12-22T13:59:27.102Z,96004.25
2022-12-22T14:02:00.486Z,96005.97
2022-12-22T14:04:29.384Z,96020.59
2022-12-22T14:06:57.726Z,96015.63
2022-12-22T14:09:27.059Z,96026.78
2022-12-22T14:11:58.994Z,96028.97
2022-12-22T14:14:32.069Z,96030.44
2022-12-22T14:17:02.355Z,96035.06
2022-12-22T14:19:36.045Z,96030.28
2022-12-22T14:22:11.178Z,96028.69
2022-12-22T14:24:45.795Z,96038.47
2022-12-22T14:27:24.061Z,96041.09
2022-12-22T14:29:53.726Z,96047.16
2022-12-22T14:32:39.255Z,96039.03
2022-12-22T14:35:27.066Z,96045.56
2022-12-22T14:37:57.304Z,96041.00
2022-12-22T14:40:33.858Z,96043.19
2022-12-22T14:43:06.573Z,96037.34
2022-12-22T14:45:36.081Z,96034.16
2022-12-22T14:48:11.233Z,96046.66
2022-12-22T14:50:40.424Z,96041.47
2022-12-22T14:53:08.628Z,96053.75
2022-12-22T14:55:40.721Z,96056.63
2022-12-22T14:58:16.346Z,96054.47
2022-12-22T15:00:48.360Z,96059.25
2022-12-22T15:03:34.065Z,96059.25
2022-12-22T15:06:24.697Z,96065.03
2022-12-22T15:08:54.133Z,96058.94
2022-12-22T15:11:25.118Z,96067.53
2022-12-22T15:13:53.406Z,96072.47
2022-12-22T15:16:24.894Z,96075.66
2022-12-22T15:18:53.935Z,96073.38
2022-12-22T15:21:22.916Z,96073.84
2022-12-22T15:23:51.089Z,96074.88
2022-12-22T15:26:19.103Z,96075.91
2022-12-22T15:28:47.123Z,96075.22
2022-12-22T15:31:17.691Z,96081.41
2022-12-22T15:33:47.385Z,96087.00
2022-12-22T15:36:15.759Z,96079.91
2022-12-22T15:38:43.831Z,96082.22
2022-12-22T15:41:11.910Z,96088.06
2022-12-22T15:46:28.011Z,96084.38
2022-12-22T15:48:57.468Z,96082.31
2022-12-22T15:51:28.972Z,96073.38
2022-12-22T15:53:58.249Z,96071.88
2022-12-22T15:56:29.411Z,96069.59
2022-12-22T15:58:58.141Z,96074.06
2022-12-22T16:01:30.836Z,96072.78
2022-12-22T16:04:00.285Z,96070.88
2022-12-22T16:06:28.372Z,96084.84
2022-12-22T16:08:56.382Z,96082.78
2022-12-22T16:11:24.499Z,96079.47
2022-12-22T16:13:53.492Z,96081.06
2022-12-22T16:16:21.645Z,96078.31
2022-12-22T16:18:54.578Z,96069.50
2022-12-22T16:21:32.377Z,96075.13
2022-12-22T16:24:03.857Z,96067.88
2022-12-22T16:26:32.695Z,96077.06
2022-12-22T16:29:00.823Z,96072.34
2022-12-22T16:31:29.256Z,96076.25
2022-12-22T16:33:59.958Z,96068.78
2022-12-22T16:36:29.320Z,96070.66
2022-12-22T16:38:57.818Z,96072.69
2022-12-22T16:41:26.850Z,96071.28
2022-12-22T16:44:03.809Z,96060.84
2022-12-22T16:46:38.605Z,96052.75
2022-12-22T16:49:09.991Z,96057.00
2022-12-22T16:51:49.267Z,96054.59
2022-12-22T16:54:17.475Z,96061.47
2022-12-22T16:56:46.916Z,96066.28
2022-12-22T16:59:15.317Z,96059.72
2022-12-22T17:01:48.518Z,96066.13
2022-12-22T17:04:22.466Z,96061.41
2022-12-22T17:06:53.179Z,96055.59
2022-12-22T17:09:29.421Z,96062.47
2022-12-22T17:11:59.362Z,96055.25
2022-12-22T17:14:35.365Z,96059.72
2022-12-22T17:17:07.057Z,96056.97
2022-12-22T17:19:35.054Z,96047.09
2022-12-22T17:22:06.021Z,96044.34
2022-12-22T17:24:34.414Z,96048.34
2022-12-22T17:27:06.837Z,96037.81
2022-12-22T17:29:36.052Z,96031.41
2022-12-22T17:32:04.159Z,96035.63
2022-12-22T17:34:33.398Z,96031.72
2022-12-22T17:37:01.851Z,96025.41
2022-12-22T17:39:32.656Z,96016.97
2022-12-22T17:42:00.696Z,96020.97
2022-12-22T17:44:28.785Z,96008.47
2022-12-22T17:46:57.222Z,96011.09
2022-12-22T17:49:29.359Z,96007.09
2022-12-22T17:51:58.699Z,96003.44
2022-12-22T17:54:28.430Z,95995.53
2022-12-22T17:57:02.477Z,95997.38
2022-12-22T17:59:30.777Z,95997.81
2022-12-22T18:01:58.929Z,95988.06
2022-12-22T18:04:26.983Z,95982.78
2022-12-22T18:06:55.909Z,95982.59
2022-12-22T18:09:27.093Z,95972.50
2022-12-22T18:11:56.689Z,95970.19
2022-12-22T18:14:24.765Z,95963.56
2022-12-22T18:16:52.979Z,95962.19
2022-12-22T18:19:21.087Z,95964.84
2022-12-22T18:21:49.684Z,95958.19
2022-12-22T18:24:19.873Z,95952.44
2022-12-22T18:26:47.929Z,95945.91
2022-12-22T18:29:17.821Z,95937.31
2022-12-22T18:31:46.477Z,95944.69
2022-12-22T18:34:14.655Z,95943.41
2022-12-22T18:36:45.412Z,95936.06
2022-12-22T18:39:20.153Z,95936.16
2022-12-22T18:41:48.433Z,95934.00
2022-12-22T18:44:18.641Z,95939.28
2022-12-22T18:46:47.605Z,95939.28
2022-12-22T18:49:15.896Z,95937.44
2022-12-22T18:51:44.928Z,95936.19
2022-12-22T18:54:28.827Z,95936.41
2022-12-22T18:56:56.872Z,95943.28
2022-12-22T18:59:28.905Z,95936.41
2022-12-22T19:02:02.940Z,95939.84
2022-12-22T19:04:31.116Z,95942.25
2022-12-22T19:06:59.471Z,95933.44
2022-12-22T19:09:27.788Z,95938.13
2022-12-22T19:11:55.879Z,95931.34
2022-12-22T19:14:24.063Z,95931.13
2022-12-22T19:16:54.721Z,95920.72
2022-12-22T19:19:22.955Z,95916.91
2022-12-22T19:21:51.028Z,95916.59
2022-12-22T19:24:19.055Z,95909.00
2022-12-22T19:26:47.169Z,95908.22
2022-12-22T19:29:15.694Z,95898.81
2022-12-22T19:31:45.159Z,95884.28
2022-12-22T19:34:20.754Z,95884.25
2022-12-22T19:36:49.292Z,95888.84
2022-12-22T19:39:17.800Z,95885.88
2022-12-22T19:41:48.863Z,95883.47
2022-12-22T19:44:24.344Z,95882.19
2022-12-22T19:46:53.494Z,95885.50
2022-12-22T19:49:25.257Z,95879.47
2022-12-22T19:51:53.280Z,95881.06
2022-12-22T19:54:21.420Z,95876.38
2022-12-22T19:56:54.213Z,95874.50
2022-12-22T19:59:32.551Z,95872.69
2022-12-22T20:02:19.285Z,95863.75
2022-12-22T20:04:49.087Z,95863.06
2022-12-22T20:07:18.478Z,95869.47
2022-12-22T20:09:47.839Z,95873.59
2022-12-22T20:12:25.166Z,95873.59
2022-12-22T20:14:53.695Z,95864.78
2022-12-22T20:17:22.149Z,95861.94
2022-12-22T20:19:51.607Z,95849.88
2022-12-22T20:22:23.830Z,95857.78
2022-12-22T20:24:54.433Z,95845.16
2022-12-22T20:27:30.864Z,95843.56
2022-12-22T20:29:58.878Z,95842.44
2022-12-22T20:32:28.562Z,95845.16
2022-12-22T20:34:58.221Z,95832.69
2022-12-22T20:37:26.287Z,95826.25
2022-12-22T20:39:54.339Z,95818.69
2022-12-22T20:42:25.667Z,95815.81
2022-12-22T20:45:02.258Z,95814.34
2022-12-22T20:47:31.728Z,95809.50
2022-12-22T20:50:01.198Z,95810.00
2022-12-22T20:52:29.482Z,95805.75
2022-12-22T20:54:57.509Z,95798.66
2022-12-22T20:57:27.167Z,95802.91
2022-12-22T20:59:56.632Z,95791.53
2022-12-22T21:02:28.525Z,95788.69
2022-12-22T21:04:57.117Z,95781.13
2022-12-22T21:07:26.735Z,95778.38
2022-12-22T21:09:54.813Z,95775.72
2022-12-22T21:12:22.857Z,95771.81
2022-12-22T21:14:51.824Z,95768.06
2022-12-22T21:17:20.674Z,95759.63
2022-12-22T21:19:48.859Z,95765.94
2022-12-22T21:22:16.883Z,95757.25
2022-12-22T21:24:46.323Z,95763.66
2022-12-22T21:27:20.926Z,95759.16
2022-12-22T21:29:49.166Z,95756.75
2022-12-22T21:32:17.599Z,95751.47
2022-12-22T21:34:45.708Z,95752.72
2022-12-22T21:37:18.673Z,95749.28
2022-12-22T21:39:48.194Z,95744.34
2022-12-22T21:42:17.025Z,95738.13
2022-12-22T21:44:45.930Z,95725.78
2022-12-22T21:47:18.199Z,95710.41
2022-12-22T21:49:46.232Z,95709.59
2022-12-22T21:52:14.478Z,95687.88
2022-12-22T21:54:42.807Z,95685.50
2022-12-22T21:57:16.046Z,95684.75
2022-12-22T21:59:44.132Z,95680.31
2022-12-22T22:02:17.220Z,95675.72
2022-12-22T22:04:53.764Z,95671.97
2022-12-22T22:07:22.437Z,95670.94
2022-12-22T22:09:50.488Z,95660.78
2022-12-22T22:12:37.153Z,95657.81
2022-12-22T22:15:07.915Z,95654.38
2022-12-22T22:17:35.987Z,95650.22
2022-12-22T22:20:04.871Z,95646.00
2022-12-22T22:22:32.944Z,95640.88
2022-12-22T22:25:00.973Z,95635.78
2022-12-22T22:27:30.439Z,95630.66
2022-12-22T22:29:58.612Z,95618.78
2022-12-22T22:32:26.831Z,95614.31
2022-12-22T22:34:54.869Z,95607.34
2022-12-22T22:37:23.068Z,95605.38
2022-12-22T22:39:51.341Z,95607.44
2022-12-22T22:42:19.424Z,95606.19
2022-12-22T22:44:48.916Z,95608.97
2022-12-22T22:47:16.973Z,95595.78
2022-12-22T22:49:45.013Z,95595.38
2022-12-22T22:52:13.136Z,95589.88
2022-12-22T22:54:41.191Z,95586.78
2022-12-22T22:57:09.250Z,95583.63
2022-12-22T22:59:37.903Z,95574.38
2022-12-22T23:02:31.336Z,95570.84
2022-12-22T23:04:59.473Z,95567.91
2022-12-22T23:07:27.519Z,95559.31
2022-12-22T23:09:55.614Z,95558.81
2022-12-22T23:12:23.763Z,95561.06
2022-12-22T23:14:51.784Z,95556.81
2022-12-22T23:17:21.226Z,95542.94
2022-12-22T23:19:49.263Z,95549.63
2022-12-22T23:22:17.566Z,95547.53
2022-12-22T23:24:45.598Z,95555.50
2022-12-22T23:27:13.697Z,95554.16
2022-12-22T23:29:41.770Z,95552.97
2022-12-22T23:32:34.308Z,95543.72
2022-12-22T23:35:03.723Z,95539.00
2022-12-22T23:37:31.740Z,95539.00
2022-12-22T23:40:25.126Z,95542.44
2022-12-22T23:42:51.681Z,95535.34
2022-12-22T23:45:22.886Z,95524.31
2022-12-22T23:47:50.913Z,95524.22
2022-12-22T23:50:20.525Z,95529.91
2022-12-22T23:52:49.487Z,95538.06
2022-12-22T23:55:18.070Z,95540.38
2022-12-22T23:57:46.399Z,95533.72
